sensor_id;sensor_type;location;lat;lon;timestamp;pressure;altitude;pressure_sealevel;temperature;humidity
38939;BME280;24211;49.980;19.776;2023-08-07T00:01:09;98093.56;;;15.13;100.00
38939;BME280;24211;49.980;19.776;2023-08-07T00:03:39;98090.59;;;15.15;100.00
38939;BME280;24211;49.980;19.776;2023-08-07T00:06:31;98087.38;;;15.13;100.00
38939;BME280;24211;49.980;19.776;2023-08-07T00:09:04;98092.75;;;15.13;100.00
38939;BME280;24211;49.980;19.776;2023-08-07T00:11:31;98083.88;;;15.12;100.00
38939;BME280;24211;49.980;19.776;2023-08-07T00:13:58;98092.75;;;15.13;100.00
38939;BME280;24211;49.980;19.776;2023-08-07T00:16:28;98091.97;;;15.12;100.00
38939;BME280;24211;49.980;19.776;2023-08-07T00:18:55;98092.25;;;15.11;100.00
38939;BME280;24211;49.980;19.776;2023-08-07T00:21:24;98090.34;;;15.11;100.00
38939;BME280;24211;49.980;19.776;2023-08-07T00:23:51;98084.97;;;15.11;100.00
38939;BME280;24211;49.980;19.776;2023-08-07T00:26:53;98079.56;;;15.11;100.00
38939;BME280;24211;49.980;19.776;2023-08-07T00:29:21;98074.19;;;15.11;100.00
38939;BME280;24211;49.980;19.776;2023-08-07T00:31:52;98070.44;;;15.12;100.00
38939;BME280;24211;49.980;19.776;2023-08-07T00:34:45;98075.00;;;15.12;100.00
38939;BME280;24211;49.980;19.776;2023-08-07T00:37:27;98073.69;;;15.09;100.00
38939;BME280;24211;49.980;19.776;2023-08-07T00:39:57;98076.38;;;15.09;100.00
38939;BME280;24211;49.980;19.776;2023-08-07T00:42:41;98076.38;;;15.09;100.00
38939;BME280;24211;49.980;19.776;2023-08-07T00:45:15;98075.84;;;15.07;100.00
38939;BME280;24211;49.980;19.776;2023-08-07T00:47:55;98072.34;;;15.06;100.00
38939;BME280;24211;49.980;19.776;2023-08-07T00:50:24;98067.78;;;15.07;100.00
38939;BME280;24211;49.980;19.776;2023-08-07T00:53:09;98066.19;;;15.06;100.00
38939;BME280;24211;49.980;19.776;2023-08-07T00:55:36;98063.50;;;15.06;100.00
38939;BME280;24211;49.980;19.776;2023-08-07T00:58:55;98062.69;;;15.05;100.00
38939;BME280;24211;49.980;19.776;2023-08-07T01:01:22;98061.09;;;15.04;100.00
38939;BME280;24211;49.980;19.776;2023-08-07T01:03:49;98064.59;;;15.05;100.00
38939;BME280;24211;49.980;19.776;2023-08-07T01:06:16;98065.38;;;15.05;100.00
38939;BME280;24211;49.980;19.776;2023-08-07T01:08:46;98060.00;;;15.05;100.00
38939;BME280;24211;49.980;19.776;2023-08-07T01:11:40;98068.34;;;15.04;100.00
38939;BME280;24211;49.980;19.776;2023-08-07T01:14:51;98067.28;;;15.05;100.00
38939;BME280;24211;49.980;19.776;2023-08-07T01:17:20;98069.97;;;15.05;100.00
38939;BME280;24211;49.980;19.776;2023-08-07T01:19:57;98072.66;;;15.05;100.00
38939;BME280;24211;49.980;19.776;2023-08-07T01:22:28;98071.03;;;15.04;100.00
38939;BME280;24211;49.980;19.776;2023-08-07T01:25:00;98066.47;;;15.04;100.00
38939;BME280;24211;49.980;19.776;2023-08-07T01:27:53;98069.16;;;15.04;100.00
38939;BME280;24211;49.980;19.776;2023-08-07T01:30:36;98064.06;;;15.03;100.00
38939;BME280;24211;49.980;19.776;2023-08-07T01:33:34;98065.13;;;15.02;100.00
38939;BME280;24211;49.980;19.776;2023-08-07T01:36:32;98061.38;;;15.03;100.00
38939;BME280;24211;49.980;19.776;2023-08-07T01:39:03;98068.63;;;15.02;100.00
38939;BME280;24211;49.980;19.776;2023-08-07T01:41:35;98065.13;;;15.02;100.00
38939;BME280;24211;49.980;19.776;2023-08-07T01:44:05;98065.13;;;15.02;100.00
38939;BME280;24211;49.980;19.776;2023-08-07T01:46:37;98066.75;;;15.03;100.00
38939;BME280;24211;49.980;19.776;2023-08-07T01:49:20;98069.44;;;15.03;100.00
38939;BME280;24211;49.980;19.776;2023-08-07T01:51:48;98074.31;;;15.01;100.00
38939;BME280;24211;49.980;19.776;2023-08-07T01:55:06;98076.47;;;14.99;100.00
38939;BME280;24211;49.980;19.776;2023-08-07T01:57:33;98074.88;;;14.98;100.00
38939;BME280;24211;49.980;19.776;2023-08-07T02:00:01;98078.63;;;14.97;100.00
38939;BME280;24211;49.980;19.776;2023-08-07T02:02:55;98088.88;;;14.95;100.00
38939;BME280;24211;49.980;19.776;2023-08-07T02:05:47;98085.69;;;14.93;100.00
38939;BME280;24211;49.980;19.776;2023-08-07T02:08:24;98077.59;;;14.93;100.00
38939;BME280;24211;49.980;19.776;2023-08-07T02:11:02;98080.56;;;14.91;100.00
38939;BME280;24211;49.980;19.776;2023-08-07T02:13:29;98078.97;;;14.90;100.00
38939;BME280;24211;49.980;19.776;2023-08-07T02:15:58;98082.72;;;14.89;100.00
38939;BME280;24211;49.980;19.776;2023-08-07T02:18:31;98085.72;;;14.88;100.00
38939;BME280;24211;49.980;19.776;2023-08-07T02:20:58;98092.97;;;14.87;100.00
38939;BME280;24211;49.980;19.776;2023-08-07T02:23:29;98091.66;;;14.85;100.00
38939;BME280;24211;49.980;19.776;2023-08-07T02:26:50;98091.13;;;14.83;100.00
38939;BME280;24211;49.980;19.776;2023-08-07T02:29:18;98097.06;;;14.80;100.00
38939;BME280;24211;49.980;19.776;2023-08-07T02:32:11;98094.69;;;14.78;100.00
38939;BME280;24211;49.980;19.776;2023-08-07T02:34:38;98094.94;;;14.77;100.00
38939;BME280;24211;49.980;19.776;2023-08-07T02:37:05;98082.59;;;14.76;100.00
38939;BME280;24211;49.980;19.776;2023-08-07T02:39:33;98093.91;;;14.73;100.00
38939;BME280;24211;49.980;19.776;2023-08-07T02:42:02;98087.72;;;14.72;100.00
38939;BME280;24211;49.980;19.776;2023-08-07T02:44:30;98079.13;;;14.70;100.00
38939;BME280;24211;49.980;19.776;2023-08-07T02:46:58;98090.69;;;14.71;100.00
38939;BME280;24211;49.980;19.776;2023-08-07T02:49:27;98088.28;;;14.69;100.00
38939;BME280;24211;49.980;19.776;2023-08-07T02:51:55;98085.88;;;14.68;100.00
38939;BME280;24211;49.980;19.776;2023-08-07T02:54:22;98086.97;;;14.67;100.00
38939;BME280;24211;49.980;19.776;2023-08-07T02:56:50;98087.25;;;14.65;100.00
38939;BME280;24211;49.980;19.776;2023-08-07T02:59:31;98084.84;;;14.64;100.00
38939;BME280;24211;49.980;19.776;2023-08-07T03:01:59;98083.22;;;14.63;100.00
38939;BME280;24211;49.980;19.776;2023-08-07T03:04:51;98096.66;;;14.63;100.00
38939;BME280;24211;49.980;19.776;2023-08-07T03:07:18;98096.97;;;14.61;100.00
38939;BME280;24211;49.980;19.776;2023-08-07T03:09:46;98099.91;;;14.60;100.00
38939;BME280;24211;49.980;19.776;2023-08-07T03:13:14;98103.69;;;14.59;100.00
38939;BME280;24211;49.980;19.776;2023-08-07T03:15:41;98102.88;;;14.58;100.00
38939;BME280;24211;49.980;19.776;2023-08-07T03:18:09;98096.69;;;14.58;100.00
38939;BME280;24211;49.980;19.776;2023-08-07T03:20:38;98103.19;;;14.57;100.00
38939;BME280;24211;49.980;19.776;2023-08-07T03:23:35;98104.25;;;14.56;100.00
38939;BME280;24211;49.980;19.776;2023-08-07T03:26:12;98106.13;;;14.55;100.00
38939;BME280;24211;49.980;19.776;2023-08-07T03:28:43;98108.00;;;14.55;100.00
38939;BME280;24211;49.980;19.776;2023-08-07T03:31:18;98109.09;;;14.54;100.00
38939;BME280;24211;49.980;19.776;2023-08-07T03:33:48;98113.38;;;14.55;100.00
38939;BME280;24211;49.980;19.776;2023-08-07T03:40:11;98115.00;;;14.56;100.00
38939;BME280;24211;49.980;19.776;2023-08-07T03:42:39;98122.00;;;14.57;100.00
38939;BME280;24211;49.980;19.776;2023-08-07T03:45:09;98120.38;;;14.56;100.00
38939;BME280;24211;49.980;19.776;2023-08-07T03:47:44;98123.06;;;14.56;100.00
38939;BME280;24211;49.980;19.776;2023-08-07T03:50:13;98126.03;;;14.59;100.00
38939;BME280;24211;49.980;19.776;2023-08-07T03:52:40;98134.84;;;14.60;100.00
38939;BME280;24211;49.980;19.776;2023-08-07T03:56:02;98138.88;;;14.62;100.00
38939;BME280;24211;49.980;19.776;2023-08-07T03:58:31;98140.50;;;14.63;100.00
38939;BME280;24211;49.980;19.776;2023-08-07T04:01:04;98148.00;;;14.66;100.00
38939;BME280;24211;49.980;19.776;2023-08-07T04:03:31;98147.22;;;14.66;100.00
38939;BME280;24211;49.980;19.776;2023-08-07T04:06:28;98142.63;;;14.66;100.00
38939;BME280;24211;49.980;19.776;2023-08-07T04:09:47;98143.97;;;14.69;100.00
38939;BME280;24211;49.980;19.776;2023-08-07T04:13:04;98147.69;;;14.73;100.00
38939;BME280;24211;49.980;19.776;2023-08-07T04:15:31;98145.53;;;14.75;100.00
38939;BME280;24211;49.980;19.776;2023-08-07T04:18:00;98150.34;;;14.78;100.00
38939;BME280;24211;49.980;19.776;2023-08-07T04:20:56;98150.06;;;14.79;100.00
38939;BME280;24211;49.980;19.776;2023-08-07T04:23:24;98146.81;;;14.82;100.00
38939;BME280;24211;49.980;19.776;2023-08-07T04:26:17;98145.44;;;14.85;100.00
38939;BME280;24211;49.980;19.776;2023-08-07T04:28:45;98150.28;;;14.88;100.00
38939;BME280;24211;49.980;19.776;2023-08-07T04:35:22;98161.53;;;14.95;100.00
38939;BME280;24211;49.980;19.776;2023-08-07T04:37:49;98151.28;;;14.97;100.00
38939;BME280;24211;49.980;19.776;2023-08-07T04:40:23;98157.72;;;15.01;100.00
38939;BME280;24211;49.980;19.776;2023-08-07T04:42:50;98156.06;;;15.05;100.00
38939;BME280;24211;49.980;19.776;2023-08-07T04:45:21;98165.16;;;15.09;100.00
38939;BME280;24211;49.980;19.776;2023-08-07T04:47:49;98158.94;;;15.14;100.00
38939;BME280;24211;49.980;19.776;2023-08-07T04:50:16;98163.75;;;15.17;100.00
38939;BME280;24211;49.980;19.776;2023-08-07T04:52:44;98157.00;;;15.19;100.00
38939;BME280;24211;49.980;19.776;2023-08-07T04:55:11;98158.06;;;15.23;100.00
38939;BME280;24211;49.980;19.776;2023-08-07T04:58:04;98162.88;;;15.26;100.00
38939;BME280;24211;49.980;19.776;2023-08-07T05:00:57;98155.31;;;15.28;100.00
38939;BME280;24211;49.980;19.776;2023-08-07T05:03:42;98159.31;;;15.31;100.00
38939;BME280;24211;49.980;19.776;2023-08-07T05:06:35;98156.06;;;15.34;100.00
38939;BME280;24211;49.980;19.776;2023-08-07T05:09:02;98152.00;;;15.36;100.00
38939;BME280;24211;49.980;19.776;2023-08-07T05:11:30;98149.84;;;15.38;100.00
38939;BME280;24211;49.980;19.776;2023-08-07T05:14:08;98161.66;;;15.42;100.00
38939;BME280;24211;49.980;19.776;2023-08-07T05:16:36;98156.53;;;15.46;100.00
38939;BME280;24211;49.980;19.776;2023-08-07T05:19:03;98160.53;;;15.48;100.00
38939;BME280;24211;49.980;19.776;2023-08-07T05:21:30;98159.19;;;15.51;100.00
38939;BME280;24211;49.980;19.776;2023-08-07T05:23:57;98160.50;;;15.53;100.00
38939;BME280;24211;49.980;19.776;2023-08-07T05:26:28;98160.44;;;15.58;100.00
38939;BME280;24211;49.980;19.776;2023-08-07T05:28:56;98162.59;;;15.61;100.00
38939;BME280;24211;49.980;19.776;2023-08-07T05:31:25;98171.69;;;15.65;100.00
38939;BME280;24211;49.980;19.776;2023-08-07T05:34:29;98160.28;;;15.74;100.00
38939;BME280;24211;49.980;19.776;2023-08-07T05:37:06;98176.41;;;15.79;100.00
38939;BME280;24211;49.980;19.776;2023-08-07T05:39:35;98169.88;;;15.85;100.00
38939;BME280;24211;49.980;19.776;2023-08-07T05:42:03;98181.13;;;15.92;100.00
38939;BME280;24211;49.980;19.776;2023-08-07T05:44:49;98177.00;;;15.99;100.00
38939;BME280;24211;49.980;19.776;2023-08-07T05:47:17;98180.41;;;16.05;100.00
38939;BME280;24211;49.980;19.776;2023-08-07T05:49:45;98181.16;;;16.10;100.00
38939;BME280;24211;49.980;19.776;2023-08-07T05:52:18;98184.63;;;16.16;100.00
38939;BME280;24211;49.980;19.776;2023-08-07T05:54:45;98186.13;;;16.22;100.00
38939;BME280;24211;49.980;19.776;2023-08-07T05:57:13;98188.25;;;16.25;100.00
38939;BME280;24211;49.980;19.776;2023-08-07T06:07:40;98188.53;;;16.47;100.00
38939;BME280;24211;49.980;19.776;2023-08-07T06:10:08;98192.81;;;16.53;100.00
38939;BME280;24211;49.980;19.776;2023-08-07T06:12:36;98186.75;;;16.61;100.00
38939;BME280;24211;49.980;19.776;2023-08-07T06:15:17;98195.28;;;16.68;100.00
38939;BME280;24211;49.980;19.776;2023-08-07T06:17:45;98191.94;;;16.76;100.00
38939;BME280;24211;49.980;19.776;2023-08-07T06:20:15;98202.16;;;16.79;100.00
38939;BME280;24211;49.980;19.776;2023-08-07T06:23:08;98202.06;;;16.84;100.00
38939;BME280;24211;49.980;19.776;2023-08-07T06:26:01;98200.38;;;16.88;100.00
38939;BME280;24211;49.980;19.776;2023-08-07T06:28:43;98199.81;;;16.91;100.00
38939;BME280;24211;49.980;19.776;2023-08-07T06:31:12;98207.03;;;16.96;100.00
38939;BME280;24211;49.980;19.776;2023-08-07T06:33:39;98203.44;;;17.00;100.00
38939;BME280;24211;49.980;19.776;2023-08-07T06:36:08;98200.66;;;17.06;100.00
38939;BME280;24211;49.980;19.776;2023-08-07T06:38:37;98204.09;;;17.11;100.00
38939;BME280;24211;49.980;19.776;2023-08-07T06:41:15;98201.47;;;17.25;100.00
38939;BME280;24211;49.980;19.776;2023-08-07T06:44:08;98195.78;;;17.40;100.00
38939;BME280;24211;49.980;19.776;2023-08-07T06:46:42;98203.72;;;17.50;100.00
38939;BME280;24211;49.980;19.776;2023-08-07T06:49:35;98200.31;;;17.63;100.00
38939;BME280;24211;49.980;19.776;2023-08-07T06:52:08;98203.09;;;17.72;100.00
38939;BME280;24211;49.980;19.776;2023-08-07T06:54:40;98210.25;;;17.81;100.00
38939;BME280;24211;49.980;19.776;2023-08-07T06:57:07;98197.91;;;17.89;100.00
38939;BME280;24211;49.980;19.776;2023-08-07T07:00:03;98196.34;;;18.01;100.00
38939;BME280;24211;49.980;19.776;2023-08-07T07:02:30;98204.16;;;18.16;100.00
38939;BME280;24211;49.980;19.776;2023-08-07T07:04:59;98205.56;;;18.27;100.00
38939;BME280;24211;49.980;19.776;2023-08-07T07:07:28;98207.97;;;18.29;100.00
38939;BME280;24211;49.980;19.776;2023-08-07T07:09:55;98213.19;;;18.39;100.00
38939;BME280;24211;49.980;19.776;2023-08-07T07:12:48;98218.78;;;18.43;100.00
38939;BME280;24211;49.980;19.776;2023-08-07T07:15:16;98214.41;;;18.47;100.00
38939;BME280;24211;49.980;19.776;2023-08-07T07:17:43;98207.88;;;18.48;100.00
38939;BME280;24211;49.980;19.776;2023-08-07T07:20:11;98210.19;;;18.54;100.00
38939;BME280;24211;49.980;19.776;2023-08-07T07:22:40;98215.78;;;18.58;100.00
38939;BME280;24211;49.980;19.776;2023-08-07T07:25:08;98217.38;;;18.59;100.00
38939;BME280;24211;49.980;19.776;2023-08-07T07:27:36;98218.91;;;18.65;100.00
38939;BME280;24211;49.980;19.776;2023-08-07T07:30:10;98220.97;;;18.68;100.00
38939;BME280;24211;49.980;19.776;2023-08-07T07:32:56;98224.19;;;18.70;100.00
38939;BME280;24211;49.980;19.776;2023-08-07T07:35:50;98228.81;;;18.69;100.00
38939;BME280;24211;49.980;19.776;2023-08-07T07:38:17;98231.41;;;18.74;100.00
38939;BME280;24211;49.980;19.776;2023-08-07T07:40:45;98232.50;;;18.73;100.00
38939;BME280;24211;49.980;19.776;2023-08-07T07:43:12;98242.63;;;18.68;100.00
38939;BME280;24211;49.980;19.776;2023-08-07T07:45:59;98239.13;;;18.67;100.00
38939;BME280;24211;49.980;19.776;2023-08-07T07:48:54;98248.31;;;18.80;100.00
38939;BME280;24211;49.980;19.776;2023-08-07T07:51:48;98245.63;;;18.80;100.00
38939;BME280;24211;49.980;19.776;2023-08-07T07:54:19;98247.75;;;18.69;100.00
38939;BME280;24211;49.980;19.776;2023-08-07T07:57:10;98252.84;;;18.71;100.00
38939;BME280;24211;49.980;19.776;2023-08-07T07:59:41;98239.53;;;18.61;100.00
38939;BME280;24211;49.980;19.776;2023-08-07T08:02:28;98245.66;;;18.53;100.00
38939;BME280;24211;49.980;19.776;2023-08-07T08:05:04;98244.16;;;18.47;100.00
38939;BME280;24211;49.980;19.776;2023-08-07T08:07:33;98254.88;;;18.52;100.00
38939;BME280;24211;49.980;19.776;2023-08-07T08:11:03;98249.06;;;18.58;100.00
38939;BME280;24211;49.980;19.776;2023-08-07T08:13:59;98249.06;;;18.72;100.00
38939;BME280;24211;49.980;19.776;2023-08-07T08:16:28;98252.44;;;18.77;100.00
38939;BME280;24211;49.980;19.776;2023-08-07T08:18:55;98256.22;;;18.90;100.00
38939;BME280;24211;49.980;19.776;2023-08-07T08:21:31;98254.41;;;18.99;100.00
38939;BME280;24211;49.980;19.776;2023-08-07T08:23:59;98259.19;;;19.16;100.00
38939;BME280;24211;49.980;19.776;2023-08-07T08:26:26;98260.13;;;19.33;100.00
38939;BME280;24211;49.980;19.776;2023-08-07T08:28:54;98253.00;;;19.60;100.00
38939;BME280;24211;49.980;19.776;2023-08-07T08:31:41;98256.06;;;19.89;100.00
38939;BME280;24211;49.980;19.776;2023-08-07T08:34:33;98248.63;;;20.25;100.00
38939;BME280;24211;49.980;19.776;2023-08-07T08:37:00;98247.91;;;20.50;100.00
38939;BME280;24211;49.980;19.776;2023-08-07T08:39:33;98252.44;;;20.72;100.00
38939;BME280;24211;49.980;19.776;2023-08-07T08:42:21;98253.25;;;20.72;100.00
38939;BME280;24211;49.980;19.776;2023-08-07T08:44:55;98251.00;;;20.74;100.00
38939;BME280;24211;49.980;19.776;2023-08-07T08:47:49;98254.56;;;20.83;100.00
38939;BME280;24211;49.980;19.776;2023-08-07T08:50:19;98254.88;;;20.91;100.00
38939;BME280;24211;49.980;19.776;2023-08-07T08:53:12;98250.78;;;21.19;100.00
38939;BME280;24211;49.980;19.776;2023-08-07T08:55:41;98252.22;;;21.25;100.00
38939;BME280;24211;49.980;19.776;2023-08-07T12:56:42;98456.09;;;18.56;100.00
38939;BME280;24211;49.980;19.776;2023-08-07T12:59:09;98458.53;;;18.57;100.00
38939;BME280;24211;49.980;19.776;2023-08-07T13:01:37;98456.09;;;18.56;100.00
38939;BME280;24211;49.980;19.776;2023-08-07T13:04:04;98459.22;;;18.63;100.00
38939;BME280;24211;49.980;19.776;2023-08-07T13:06:33;98466.00;;;18.79;100.00
38939;BME280;24211;49.980;19.776;2023-08-07T13:09:00;98466.41;;;18.86;100.00
38939;BME280;24211;49.980;19.776;2023-08-07T13:11:30;98469.63;;;19.02;100.00
38939;BME280;24211;49.980;19.776;2023-08-07T13:13:57;98480.78;;;19.14;100.00
38939;BME280;24211;49.980;19.776;2023-08-07T13:16:24;98473.44;;;19.28;100.00
38939;BME280;24211;49.980;19.776;2023-08-07T13:18:51;98480.50;;;19.42;100.00
38939;BME280;24211;49.980;19.776;2023-08-07T13:21:19;98483.72;;;19.58;100.00
38939;BME280;24211;49.980;19.776;2023-08-07T13:23:46;98488.72;;;19.65;100.00
38939;BME280;24211;49.980;19.776;2023-08-07T13:26:13;98494.19;;;19.87;100.00
38939;BME280;24211;49.980;19.776;2023-08-07T13:28:40;98491.22;;;20.10;100.00
38939;BME280;24211;49.980;19.776;2023-08-07T13:31:08;98489.97;;;20.30;100.00
38939;BME280;24211;49.980;19.776;2023-08-07T13:33:35;98489.72;;;20.40;100.00
38939;BME280;24211;49.980;19.776;2023-08-07T13:36:05;98493.72;;;20.43;100.00
38939;BME280;24211;49.980;19.776;2023-08-07T13:38:32;98493.94;;;20.46;100.00
38939;BME280;24211;49.980;19.776;2023-08-07T13:40:59;98491.03;;;20.43;100.00
38939;BME280;24211;49.980;19.776;2023-08-07T13:43:26;98504.47;;;20.26;100.00
38939;BME280;24211;49.980;19.776;2023-08-07T13:45:54;98503.41;;;20.35;100.00
38939;BME280;24211;49.980;19.776;2023-08-07T13:48:21;98505.63;;;20.33;100.00
38939;BME280;24211;49.980;19.776;2023-08-07T13:50:50;98504.66;;;20.29;100.00
38939;BME280;24211;49.980;19.776;2023-08-07T13:53:17;98510.69;;;20.26;100.00
38939;BME280;24211;49.980;19.776;2023-08-07T13:55:44;98515.88;;;20.36;100.00
38939;BME280;24211;49.980;19.776;2023-08-07T13:58:12;98510.81;;;20.43;100.00
38939;BME280;24211;49.980;19.776;2023-08-07T14:00:43;98514.63;;;20.42;100.00
38939;BME280;24211;49.980;19.776;2023-08-07T14:03:11;98511.44;;;20.40;100.00
38939;BME280;24211;49.980;19.776;2023-08-07T14:05:41;98518.16;;;20.43;100.00
38939;BME280;24211;49.980;19.776;2023-08-07T14:08:08;98523.09;;;20.41;100.00
38939;BME280;24211;49.980;19.776;2023-08-07T14:10:38;98515.28;;;20.39;100.00
38939;BME280;24211;49.980;19.776;2023-08-07T14:13:09;98513.78;;;20.33;100.00
38939;BME280;24211;49.980;19.776;2023-08-07T14:15:37;98523.81;;;20.33;100.00
38939;BME280;24211;49.980;19.776;2023-08-07T14:18:04;98518.34;;;20.24;100.00
38939;BME280;24211;49.980;19.776;2023-08-07T14:20:32;98524.34;;;20.21;100.00
38939;BME280;24211;49.980;19.776;2023-08-07T14:23:07;98520.75;;;20.26;100.00
38939;BME280;24211;49.980;19.776;2023-08-07T14:25:47;98520.94;;;20.29;100.00
38939;BME280;24211;49.980;19.776;2023-08-07T14:28:18;98519.31;;;20.28;100.00
38939;BME280;24211;49.980;19.776;2023-08-07T14:30:45;98520.94;;;20.29;100.00
38939;BME280;24211;49.980;19.776;2023-08-07T14:33:12;98513.28;;;20.31;100.00
38939;BME280;24211;49.980;19.776;2023-08-07T14:35:40;98515.06;;;20.36;100.00
38939;BME280;24211;49.980;19.776;2023-08-07T14:38:07;98513.16;;;20.36;100.00
38939;BME280;24211;49.980;19.776;2023-08-07T14:40:34;98525.31;;;20.39;100.00
38939;BME280;24211;49.980;19.776;2023-08-07T14:43:04;98530.56;;;20.35;100.00
38939;BME280;24211;49.980;19.776;2023-08-07T14:45:32;98524.31;;;20.35;100.00
38939;BME280;24211;49.980;19.776;2023-08-07T14:47:59;98529.13;;;20.38;100.00
38939;BME280;24211;49.980;19.776;2023-08-07T14:50:28;98527.72;;;20.40;100.00
38939;BME280;24211;49.980;19.776;2023-08-07T14:52:55;98531.94;;;20.46;100.00
38939;BME280;24211;49.980;19.776;2023-08-07T14:55:22;98531.13;;;20.46;100.00
38939;BME280;24211;49.980;19.776;2023-08-07T14:57:49;98542.28;;;20.44;100.00
38939;BME280;24211;49.980;19.776;2023-08-07T15:00:17;98538.78;;;20.44;100.00
38939;BME280;24211;49.980;19.776;2023-08-07T15:02:45;98535.75;;;20.45;100.00
38939;BME280;24211;49.980;19.776;2023-08-07T15:05:14;98538.94;;;20.47;100.00
38939;BME280;24211;49.980;19.776;2023-08-07T15:07:41;98531.41;;;20.44;100.00
38939;BME280;24211;49.980;19.776;2023-08-07T15:10:09;98535.75;;;20.45;100.00
38939;BME280;24211;49.980;19.776;2023-08-07T15:12:36;98532.16;;;20.36;100.00
38939;BME280;24211;49.980;19.776;2023-08-07T15:15:04;98531.34;;;20.36;100.00
38939;BME280;24211;49.980;19.776;2023-08-07T15:17:32;98535.00;;;20.31;100.00
38939;BME280;24211;49.980;19.776;2023-08-07T15:19:59;98531.16;;;20.32;100.00
38939;BME280;24211;49.980;19.776;2023-08-07T15:22:27;98537.72;;;20.31;100.00
38939;BME280;24211;49.980;19.776;2023-08-07T15:24:54;98541.41;;;20.35;100.00
38939;BME280;24211;49.980;19.776;2023-08-07T15:27:21;98537.00;;;20.39;100.00
38939;BME280;24211;49.980;19.776;2023-08-07T15:29:48;98541.13;;;20.37;100.00
38939;BME280;24211;49.980;19.776;2023-08-07T15:32:16;98548.13;;;20.38;100.00
38939;BME280;24211;49.980;19.776;2023-08-07T15:34:46;98550.66;;;20.34;100.00
38939;BME280;24211;49.980;19.776;2023-08-07T15:37:15;98548.84;;;20.30;100.00
38939;BME280;24211;49.980;19.776;2023-08-07T15:39:42;98557.69;;;20.35;100.00
38939;BME280;24211;49.980;19.776;2023-08-07T15:42:09;98553.06;;;20.36;100.00
38939;BME280;24211;49.980;19.776;2023-08-07T15:44:36;98565.13;;;20.30;100.00
38939;BME280;24211;49.980;19.776;2023-08-07T15:47:06;98572.91;;;20.23;100.00
38939;BME280;24211;49.980;19.776;2023-08-07T15:49:33;98584.66;;;20.04;100.00
38939;BME280;24211;49.980;19.776;2023-08-07T15:52:00;98575.63;;;19.95;100.00
38939;BME280;24211;49.980;19.776;2023-08-07T15:54:27;98579.25;;;19.91;100.00
38939;BME280;24211;49.980;19.776;2023-08-07T15:56:55;98579.84;;;19.88;100.00
38939;BME280;24211;49.980;19.776;2023-08-07T15:59:24;98580.88;;;19.92;100.00
38939;BME280;24211;49.980;19.776;2023-08-07T16:01:53;98591.78;;;20.00;100.00
38939;BME280;24211;49.980;19.776;2023-08-07T16:04:21;98594.88;;;20.07;100.00
38939;BME280;24211;49.980;19.776;2023-08-07T16:06:48;98590.47;;;20.11;100.00
38939;BME280;24211;49.980;19.776;2023-08-07T16:09:15;98586.03;;;20.15;100.00
38939;BME280;24211;49.980;19.776;2023-08-07T16:11:42;98591.28;;;20.12;100.00
38939;BME280;24211;49.980;19.776;2023-08-07T16:14:10;98601.72;;;20.18;100.00
38939;BME280;24211;49.980;19.776;2023-08-07T16:16:37;98601.94;;;20.08;100.00
38939;BME280;24211;49.980;19.776;2023-08-07T16:19:05;98599.75;;;19.97;100.00
38939;BME280;24211;49.980;19.776;2023-08-07T16:21:32;98600.34;;;19.94;100.00
38939;BME280;24211;49.980;19.776;2023-08-07T16:23:59;98607.97;;;19.92;100.00
38939;BME280;24211;49.980;19.776;2023-08-07T16:26:27;98608.78;;;19.92;100.00
38939;BME280;24211;49.980;19.776;2023-08-07T16:28:54;98616.22;;;19.87;100.00
38939;BME280;24211;49.980;19.776;2023-08-07T16:31:21;98617.22;;;19.77;100.00
38939;BME280;24211;49.980;19.776;2023-08-07T16:33:49;98613.59;;;19.68;100.00
38939;BME280;24211;49.980;19.776;2023-08-07T16:36:16;98603.66;;;19.64;100.00
38939;BME280;24211;49.980;19.776;2023-08-07T16:39:12;98611.38;;;19.56;100.00
38939;BME280;24211;49.980;19.776;2023-08-07T16:41:39;98615.22;;;19.55;100.00
38939;BME280;24211;49.980;19.776;2023-08-07T16:44:33;98625.19;;;19.41;100.00
38939;BME280;24211;49.980;19.776;2023-08-07T16:47:04;98625.97;;;19.28;100.00
38939;BME280;24211;49.980;19.776;2023-08-07T16:49:35;98620.91;;;19.22;100.00
38939;BME280;24211;49.980;19.776;2023-08-07T16:52:04;98623.53;;;19.13;100.00
38939;BME280;24211;49.980;19.776;2023-08-07T16:54:32;98623.88;;;19.07;100.00
38939;BME280;24211;49.980;19.776;2023-08-07T16:57:04;98623.09;;;19.06;100.00
38939;BME280;24211;49.980;19.776;2023-08-07T16:59:32;98632.31;;;19.05;100.00
38939;BME280;24211;49.980;19.776;2023-08-07T17:01:59;98627.78;;;19.01;100.00
38939;BME280;24211;49.980;19.776;2023-08-07T17:04:28;98624.28;;;19.00;100.00
38939;BME280;24211;49.980;19.776;2023-08-07T17:06:58;98627.78;;;19.01;100.00
38939;BME280;24211;49.980;19.776;2023-08-07T17:09:28;98626.47;;;18.98;100.00
38939;BME280;24211;49.980;19.776;2023-08-07T17:11:56;98625.06;;;19.01;100.00
38939;BME280;24211;49.980;19.776;2023-08-07T17:14:25;98623.47;;;19.00;100.00
38939;BME280;24211;49.980;19.776;2023-08-07T17:16:52;98630.28;;;18.97;100.00
38939;BME280;24211;49.980;19.776;2023-08-07T17:19:20;98636.31;;;18.94;100.00
38939;BME280;24211;49.980;19.776;2023-08-07T17:21:49;98635.75;;;18.92;100.00
38939;BME280;24211;49.980;19.776;2023-08-07T17:24:16;98641.78;;;18.89;100.00
38939;BME280;24211;49.980;19.776;2023-08-07T17:26:43;98649.91;;;18.89;100.00
38939;BME280;24211;49.980;19.776;2023-08-07T17:29:11;98642.38;;;18.86;100.00